createdAt,value
2017-12-04T00:00:42.438Z,101017.40
2017-12-04T00:03:44.665Z,101015.45
2017-12-04T00:06:46.074Z,101015.43
2017-12-04T00:09:48.296Z,101007.64
2017-12-04T00:12:49.763Z,101015.89
2017-12-04T00:15:51.230Z,101016.76
2017-12-04T00:18:52.875Z,101012.84
2017-12-04T00:21:54.345Z,101019.59
2017-12-04T00:24:55.840Z,101018.80
2017-12-04T00:27:57.204Z,101018.05
2017-12-04T00:30:58.660Z,101017.77
2017-12-04T00:34:00.054Z,101012.91
2017-12-04T00:37:01.477Z,101008.11
2017-12-04T00:40:02.894Z,101008.47
2017-12-04T00:43:04.315Z,101020.69
2017-12-04T00:46:05.802Z,101031.42
2017-12-04T00:49:07.178Z,101020.17
2017-12-04T00:52:08.598Z,101010.94
2017-12-04T00:55:09.987Z,101022.25
2017-12-04T00:58:11.399Z,101014.58
2017-12-04T01:01:13.563Z,101019.86
2017-12-04T01:04:15.707Z,101014.30
2017-12-04T01:07:17.179Z,101010.05
2017-12-04T01:10:19.356Z,101017.09
2017-12-04T01:13:21.554Z,101018.55
2017-12-04T01:16:22.956Z,101028.44
2017-12-04T01:19:24.328Z,101040.36
2017-12-04T01:22:26.487Z,101045.60
2017-12-04T01:25:27.878Z,101048.34
2017-12-04T01:28:29.321Z,101047.08
2017-12-04T01:31:30.687Z,101044.16
2017-12-04T01:34:32.958Z,101049.22
2017-12-04T01:37:34.444Z,101042.48
2017-12-04T01:40:35.839Z,101057.78
2017-12-04T01:43:37.964Z,101058.67
2017-12-04T01:46:39.385Z,101053.74
2017-12-04T01:49:41.024Z,101048.96
2017-12-04T01:52:42.416Z,101037.56
2017-12-04T01:55:43.811Z,101040.78
2017-12-04T01:58:45.904Z,101052.39
2017-12-04T02:01:47.328Z,101046.09
2017-12-04T02:04:49.453Z,101050.90
2017-12-04T02:07:50.895Z,101052.39
2017-12-04T02:10:52.296Z,101045.30
2017-12-04T02:13:54.388Z,101061.98
2017-12-04T02:16:55.707Z,101059.45
2017-12-04T02:19:57.204Z,101050.30
2017-12-04T02:22:58.597Z,101059.72
2017-12-04T02:25:59.989Z,101072.05
2017-12-04T02:29:01.364Z,101057.80
2017-12-04T02:32:02.810Z,101063.93
2017-12-04T02:35:04.272Z,101059.80
2017-12-04T02:38:05.646Z,101052.20
2017-12-04T02:41:07.172Z,101054.94
2017-12-04T02:44:08.601Z,101053.09
2017-12-04T02:47:10.753Z,101052.05
2017-12-04T02:50:12.144Z,101053.23
2017-12-04T02:53:13.789Z,101051.09
2017-12-04T02:56:15.188Z,101044.05
2017-12-04T02:59:16.592Z,101053.95
2017-12-04T03:02:17.983Z,101042.52
2017-12-04T03:05:19.322Z,101047.59
2017-12-04T03:08:20.700Z,101051.86
2017-12-04T03:11:22.051Z,101052.95
2017-12-04T03:14:23.439Z,101065.41
2017-12-04T03:17:24.967Z,101071.89
2017-12-04T03:20:27.110Z,101070.59
2017-12-04T03:23:28.535Z,101056.55
2017-12-04T03:26:29.940Z,101065.83
2017-12-04T03:29:32.057Z,101055.45
2017-12-04T03:32:33.492Z,101056.41
2017-12-04T03:35:34.903Z,101063.45
2017-12-04T03:38:36.296Z,101072.40
2017-12-04T03:41:37.687Z,101058.66
2017-12-04T03:44:39.033Z,101076.23
2017-12-04T03:47:40.436Z,101082.81
2017-12-04T03:50:41.771Z,101077.21
2017-12-04T03:53:44.041Z,101079.05
2017-12-04T03:56:46.156Z,101079.45
2017-12-04T03:59:47.531Z,101082.09
2017-12-04T04:02:48.910Z,101074.33
2017-12-04T04:05:50.984Z,101068.19
2017-12-04T04:08:53.108Z,101082.20
2017-12-04T04:11:55.189Z,101068.47
2017-12-04T04:14:56.556Z,101059.00
2017-12-04T04:17:58.640Z,101065.15
2017-12-04T04:21:00.761Z,101060.09
2017-12-04T04:24:03.124Z,101058.63
2017-12-04T04:27:04.473Z,101059.02
2017-12-04T04:30:05.904Z,101058.31
2017-12-04T04:33:07.248Z,101065.19
2017-12-04T04:36:08.644Z,101070.44
2017-12-04T04:39:10.024Z,101071.81
2017-12-04T04:42:12.192Z,101073.94
2017-12-04T04:45:14.285Z,101061.75
2017-12-04T04:48:15.715Z,101067.30
2017-12-04T04:51:17.865Z,101072.84
2017-12-04T04:54:19.375Z,101074.67
2017-12-04T04:57:20.784Z,101076.72
2017-12-04T05:00:22.163Z,101093.09
2017-12-04T05:03:23.587Z,101085.44
2017-12-04T05:06:25.726Z,101068.80
2017-12-04T05:09:27.152Z,101080.41
2017-12-04T05:12:28.508Z,101079.24
2017-12-04T05:15:29.925Z,101081.17
2017-12-04T05:18:32.064Z,101092.69
2017-12-04T05:21:33.604Z,101099.11
2017-12-04T05:24:35.282Z,101103.03
2017-12-04T05:27:36.903Z,101097.62
2017-12-04T05:30:38.355Z,101095.27
2017-12-04T05:33:39.700Z,101098.25
2017-12-04T05:36:41.069Z,101096.97
2017-12-04T05:39:42.451Z,101098.72
2017-12-04T05:42:43.859Z,101101.45
2017-12-04T05:45:45.200Z,101109.81
2017-12-04T05:48:46.672Z,101109.45
2017-12-04T05:51:48.064Z,101109.88
2017-12-04T05:54:50.146Z,101106.77
2017-12-04T05:57:52.314Z,101106.77
2017-12-04T06:00:53.648Z,101108.62
2017-12-04T06:03:55.761Z,101108.44
2017-12-04T06:06:57.107Z,101109.27
2017-12-04T06:09:58.571Z,101107.56
2017-12-04T06:12:59.900Z,101103.95
2017-12-04T06:16:01.312Z,101112.60
2017-12-04T06:19:02.673Z,101115.38
2017-12-04T06:22:04.740Z,101113.67
2017-12-04T06:25:07.012Z,101118.43
2017-12-04T06:28:09.093Z,101127.11
2017-12-04T06:31:10.523Z,101132.08
2017-12-04T06:34:11.871Z,101130.86
2017-12-04T06:37:13.229Z,101141.13
2017-12-04T06:40:15.296Z,101148.64
2017-12-04T06:43:17.415Z,101140.80
2017-12-04T06:46:25.836Z,101159.14
2017-12-04T06:49:27.217Z,101153.80
2017-12-04T06:52:28.675Z,101162.87
2017-12-04T06:55:30.058Z,101165.22
2017-12-04T06:58:31.428Z,101160.03
2017-12-04T07:01:32.843Z,101169.72
2017-12-04T07:04:34.929Z,101175.84
2017-12-04T07:07:36.481Z,101184.61
2017-12-04T07:10:37.774Z,101186.16
2017-12-04T07:13:39.878Z,101185.37
2017-12-04T07:16:41.964Z,101201.38
2017-12-04T07:19:43.396Z,101192.19
2017-12-04T07:22:45.520Z,101198.52
2017-12-04T07:25:46.884Z,101202.89
2017-12-04T07:28:48.231Z,101187.64
2017-12-04T07:31:49.581Z,101133.36
2017-12-04T07:34:51.055Z,101202.83
2017-12-04T07:37:52.444Z,101200.80
2017-12-04T07:40:53.792Z,101198.79
2017-12-04T07:43:55.123Z,101217.14
2017-12-04T07:46:57.216Z,101210.33
2017-12-04T07:49:58.595Z,101212.28
2017-12-04T07:53:00.065Z,101215.38
2017-12-04T07:56:01.398Z,101215.53
2017-12-04T07:59:02.769Z,101206.80
2017-12-04T08:02:04.131Z,101216.31
2017-12-04T08:05:05.621Z,101220.36
2017-12-04T08:08:07.753Z,101216.66
2017-12-04T08:11:09.076Z,101227.03
2017-12-04T08:14:10.445Z,101221.09
2017-12-04T08:17:11.803Z,101225.94
2017-12-04T08:20:13.179Z,101231.20
2017-12-04T08:23:14.573Z,101223.23
2017-12-04T08:26:15.968Z,101232.81
2017-12-04T08:29:18.066Z,101236.06
2017-12-04T08:32:19.403Z,101238.39
2017-12-04T08:35:21.008Z,101225.95
2017-12-04T08:38:22.308Z,101234.09
2017-12-04T08:41:23.760Z,101231.95
2017-12-04T08:44:25.090Z,101234.71
2017-12-04T08:47:27.170Z,101251.13
2017-12-04T08:50:29.226Z,101245.53
2017-12-04T08:53:31.296Z,101250.20
2017-12-04T08:56:33.380Z,101256.30
2017-12-04T08:59:34.720Z,101267.41
2017-12-04T09:02:36.819Z,101273.83
2017-12-04T09:05:38.242Z,101276.70
2017-12-04T09:08:40.352Z,101264.20
2017-12-04T09:11:41.712Z,101270.31
2017-12-04T09:14:43.087Z,101282.02
2017-12-04T09:17:44.469Z,101278.69
2017-12-04T09:20:45.833Z,101287.94
2017-12-04T09:23:47.465Z,101300.16
2017-12-04T09:26:49.624Z,101301.92
2017-12-04T09:29:51.732Z,101301.22
2017-12-04T09:32:53.100Z,101300.79
2017-12-04T09:35:54.456Z,101302.87
2017-12-04T09:38:55.903Z,101307.25
2017-12-04T09:41:57.255Z,101318.10
2017-12-04T09:44:58.645Z,101319.59
2017-12-04T09:48:00.770Z,101325.52
2017-12-04T09:51:02.197Z,101325.31
2017-12-04T09:54:03.639Z,101326.80
2017-12-04T09:57:05.749Z,101326.40
2017-12-04T10:00:07.837Z,101339.91
2017-12-04T10:03:09.218Z,101338.59
2017-12-04T10:06:11.344Z,101352.80
2017-12-04T10:09:12.710Z,101338.03
2017-12-04T10:12:14.049Z,101340.55
2017-12-04T10:15:15.620Z,101337.02
2017-12-04T10:18:17.075Z,101341.36
2017-12-04T10:21:18.444Z,101322.92
2017-12-04T10:24:20.621Z,101329.97
2017-12-04T10:27:22.056Z,101339.69
2017-12-04T10:30:24.168Z,101336.93
2017-12-04T10:33:25.568Z,101343.64
2017-12-04T10:36:26.996Z,101345.06
2017-12-04T10:39:28.406Z,101343.48
2017-12-04T10:42:29.762Z,101339.41
2017-12-04T10:45:31.239Z,101337.70
2017-12-04T10:48:32.772Z,101344.80
2017-12-04T10:51:34.216Z,101341.00
2017-12-04T10:54:35.605Z,101346.38
2017-12-04T10:57:37.061Z,101343.44
2017-12-04T11:00:38.488Z,101333.50
2017-12-04T11:03:39.893Z,101341.30
2017-12-04T11:06:41.443Z,101334.41
2017-12-04T11:09:42.835Z,101337.98
2017-12-04T11:12:44.244Z,101333.73
2017-12-04T11:15:45.634Z,101336.83
2017-12-04T11:18:47.020Z,101337.72
2017-12-04T11:21:48.485Z,101343.06
2017-12-04T11:24:49.899Z,101342.91
2017-12-04T11:27:51.350Z,101336.81
2017-12-04T11:30:52.824Z,101335.73
2017-12-04T11:33:54.277Z,101342.96
2017-12-04T11:36:55.673Z,101345.20
2017-12-04T11:39:57.801Z,101342.06
2017-12-04T11:42:59.253Z,101346.09
2017-12-04T11:46:00.789Z,101349.83
2017-12-04T11:49:02.487Z,101361.84
2017-12-04T11:52:04.752Z,101347.41
2017-12-04T11:55:06.141Z,101351.31
2017-12-04T11:58:08.720Z,101345.24
2017-12-04T12:01:10.823Z,101347.48
2017-12-04T12:04:12.560Z,101351.45
2017-12-04T12:07:13.986Z,101337.72
2017-12-04T12:10:16.392Z,101348.16
2017-12-04T12:13:17.772Z,101344.32
2017-12-04T12:16:19.288Z,101344.73
2017-12-04T12:19:21.371Z,101361.77
2017-12-04T12:22:22.736Z,101353.07
2017-12-04T12:25:24.092Z,101352.17
2017-12-04T12:28:25.472Z,101350.58
2017-12-04T12:31:26.828Z,101346.96
2017-12-04T12:34:28.233Z,101337.09
2017-12-04T12:37:29.582Z,101341.73
2017-12-04T12:40:30.936Z,101326.66
2017-12-04T12:43:32.304Z,101330.32
2017-12-04T12:46:33.828Z,101336.28
2017-12-04T12:49:35.213Z,101332.47
2017-12-04T12:52:37.310Z,101344.88
2017-12-04T12:55:38.671Z,101339.47
2017-12-04T12:58:40.803Z,101331.20
2017-12-04T13:01:42.163Z,101335.30
2017-12-04T13:12:16.701Z,101331.17
2017-12-04T13:15:18.805Z,101328.89
2017-12-04T13:18:20.157Z,101333.37
2017-12-04T13:21:21.505Z,101336.09
2017-12-04T13:24:22.885Z,101339.59
2017-12-04T13:27:24.245Z,101340.89
2017-12-04T13:30:25.563Z,101333.42
2017-12-04T13:33:45.494Z,101329.52
2017-12-04T13:36:49.778Z,101328.41
2017-12-04T13:39:51.064Z,101330.39
2017-12-04T13:42:52.421Z,101339.25
2017-12-04T13:45:53.768Z,101344.05
2017-12-04T13:48:55.121Z,101356.41
2017-12-04T13:51:56.428Z,101356.88
2017-12-04T13:54:57.793Z,101363.92
2017-12-04T13:57:59.212Z,101365.64
2017-12-04T14:01:00.567Z,101364.34
2017-12-04T14:04:01.941Z,101361.69
2017-12-04T14:07:03.276Z,101359.05
2017-12-04T14:10:04.605Z,101359.10
2017-12-04T14:13:05.919Z,101356.86
2017-12-04T14:16:07.249Z,101363.94
2017-12-04T14:19:08.563Z,101371.44
2017-12-04T14:22:09.917Z,101379.36
2017-12-04T14:25:11.274Z,101376.73
2017-12-04T14:28:12.609Z,101390.78
2017-12-04T14:31:13.941Z,101386.81
2017-12-04T14:34:15.996Z,101389.02
2017-12-04T14:37:17.325Z,101400.48
2017-12-04T14:40:18.672Z,101399.58
2017-12-04T14:43:20.030Z,101399.12
2017-12-04T14:46:21.380Z,101403.06
2017-12-04T14:49:22.774Z,101412.79
2017-12-04T14:52:24.125Z,101412.80
2017-12-04T14:55:25.529Z,101409.20
2017-12-04T14:58:26.908Z,101414.07
2017-12-04T15:01:29.048Z,101413.20
2017-12-04T15:04:30.439Z,101422.91
2017-12-04T15:07:32.580Z,101426.86
2017-12-04T15:10:33.979Z,101440.07
2017-12-04T15:13:35.359Z,101437.88
2017-12-04T15:16:36.810Z,101444.05
2017-12-04T15:19:38.857Z,101451.06
2017-12-04T15:22:40.289Z,101454.14
2017-12-04T15:25:42.459Z,101460.31
2017-12-04T15:28:44.538Z,101451.95
2017-12-04T15:31:45.971Z,101453.14
2017-12-04T15:34:48.081Z,101460.83
2017-12-04T15:37:49.462Z,101463.23
2017-12-04T15:40:50.822Z,101453.16
2017-12-04T15:43:52.185Z,101469.50
2017-12-04T15:46:54.280Z,101467.05
2017-12-04T15:49:55.696Z,101460.58
2017-12-04T15:52:57.104Z,101464.59
2017-12-04T15:55:58.468Z,101459.85
2017-12-04T15:58:59.828Z,101450.06
2017-12-04T16:02:01.196Z,101461.56
2017-12-04T16:05:02.581Z,101461.98
2017-12-04T16:08:03.922Z,101478.73
2017-12-04T16:11:06.041Z,101477.36
2017-12-04T16:14:07.421Z,101481.08
2017-12-04T16:17:08.765Z,101498.86
2017-12-04T16:20:10.157Z,101493.60
2017-12-04T16:23:11.510Z,101503.95
2017-12-04T16:26:12.877Z,101496.51
2017-12-04T16:29:14.219Z,101497.58
2017-12-04T16:32:15.604Z,101507.41
2017-12-04T16:35:16.992Z,101516.37
2017-12-04T16:38:18.376Z,101516.73
2017-12-04T16:41:19.800Z,101523.43
2017-12-04T16:44:21.885Z,101523.36
2017-12-04T16:47:23.284Z,101521.50
2017-12-04T16:50:24.629Z,101529.17
2017-12-04T16:53:25.997Z,101530.25
2017-12-04T16:56:27.397Z,101535.78
2017-12-04T16:59:28.735Z,101538.98
2017-12-04T17:02:30.857Z,101538.84
2017-12-04T17:05:32.257Z,101537.28
2017-12-04T17:08:34.378Z,101543.83
2017-12-04T17:11:35.707Z,101544.80
2017-12-04T17:14:37.478Z,101546.56
2017-12-04T17:17:38.865Z,101548.35
2017-12-04T17:20:41.114Z,101555.78
2017-12-04T17:23:42.576Z,101553.20
2017-12-04T17:26:45.192Z,101571.26
2017-12-04T17:29:46.870Z,101571.38
2017-12-04T17:32:48.912Z,101567.55
2017-12-04T17:35:50.318Z,101571.45
2017-12-04T17:38:51.799Z,101581.70
2017-12-04T17:41:53.565Z,101582.42
2017-12-04T17:44:54.993Z,101597.59
2017-12-04T17:47:57.200Z,101596.27
2017-12-04T17:50:59.355Z,101599.55
2017-12-04T17:54:00.732Z,101600.47
2017-12-04T17:57:02.837Z,101601.80
2017-12-04T18:00:04.203Z,101605.64
2017-12-04T18:03:06.324Z,101604.04
2017-12-04T18:06:09.005Z,101610.45
2017-12-04T18:09:10.417Z,101609.81
2017-12-04T18:12:11.840Z,101613.61
2017-12-04T18:15:14.493Z,101608.55
2017-12-04T18:18:17.109Z,101610.79
2017-12-04T18:21:19.135Z,101615.75
2017-12-04T18:24:23.224Z,101622.09
2017-12-04T18:27:24.849Z,101624.31
2017-12-04T18:30:26.201Z,101626.09
2017-12-04T18:33:28.318Z,101621.28
2017-12-04T18:36:30.421Z,101630.97
2017-12-04T18:39:31.804Z,101631.44
2017-12-04T18:42:33.178Z,101623.55
2017-12-04T18:45:34.543Z,101626.20
2017-12-04T18:48:38.092Z,101634.20
2017-12-04T18:51:39.982Z,101633.80
2017-12-04T18:54:41.379Z,101635.32
2017-12-04T18:57:43.947Z,101633.56
2017-12-04T19:00:47.043Z,101639.42
2017-12-04T19:03:48.521Z,101638.17
2017-12-04T19:06:51.988Z,101640.97
2017-12-04T19:09:56.558Z,101639.77
2017-12-04T19:12:58.192Z,101634.83
2017-12-04T19:15:59.634Z,101644.66
2017-12-04T19:19:01.277Z,101643.29
2017-12-04T19:22:03.464Z,101647.91
2017-12-04T19:25:05.707Z,101653.75
2017-12-04T19:28:07.134Z,101660.11
2017-12-04T19:31:08.605Z,101655.12
2017-12-04T19:34:10.017Z,101658.80
2017-12-04T19:37:11.426Z,101651.30
2017-12-04T19:40:13.822Z,101663.18
2017-12-04T19:43:15.245Z,101667.73
2017-12-04T19:46:16.781Z,101673.87
2017-12-04T19:49:18.240Z,101674.02
2017-12-04T19:52:20.402Z,101678.81
2017-12-04T19:55:22.104Z,101686.43
2017-12-04T19:58:23.615Z,101686.52
2017-12-04T20:01:25.086Z,101682.18
2017-12-04T20:04:26.536Z,101683.05
2017-12-04T20:07:28.099Z,101686.70
2017-12-04T20:10:29.559Z,101687.84
2017-12-04T20:13:31.703Z,101687.03
2017-12-04T20:16:33.109Z,101684.80
2017-12-04T20:19:41.571Z,101691.92
2017-12-04T20:22:43.254Z,101699.52
2017-12-04T20:25:44.726Z,101689.52
2017-12-04T20:28:46.874Z,101691.95
2017-12-04T20:31:48.278Z,101701.24
2017-12-04T20:34:49.714Z,101696.31
2017-12-04T20:37:51.123Z,101696.69
2017-12-04T20:40:54.002Z,101697.69
2017-12-04T20:43:55.704Z,101700.02
2017-12-04T20:46:58.042Z,101705.73
2017-12-04T20:49:59.658Z,101708.30
2017-12-04T20:53:01.111Z,101709.88
2017-12-04T20:56:02.494Z,101711.33
2017-12-04T20:59:03.894Z,101713.45
2017-12-04T21:02:05.325Z,101712.08
2017-12-04T21:05:08.433Z,101716.30
2017-12-04T21:08:28.462Z,101723.97
2017-12-04T21:11:48.597Z,101724.36
2017-12-04T21:15:08.635Z,101728.42
2017-12-04T21:18:10.245Z,101723.90
2017-12-04T21:21:12.637Z,101735.26
2017-12-04T21:24:14.850Z,101740.72
2017-12-04T21:27:17.342Z,101741.20
2017-12-04T21:30:18.747Z,101737.69
2017-12-04T21:33:20.129Z,101738.65
2017-12-04T21:36:21.514Z,101739.95
2017-12-04T21:39:22.877Z,101758.32
2017-12-04T21:42:25.044Z,101753.69
2017-12-04T21:45:26.777Z,101750.25
2017-12-04T21:48:28.153Z,101751.72
2017-12-04T21:51:30.245Z,101757.48
2017-12-04T21:54:31.609Z,101756.19
2017-12-04T21:57:33.020Z,101758.80
2017-12-04T22:00:34.381Z,101750.34
2017-12-04T22:03:36.869Z,101763.08
2017-12-04T22:06:39.001Z,101763.50
2017-12-04T22:09:40.335Z,101770.98
2017-12-04T22:12:41.710Z,101776.57
2017-12-04T22:15:43.083Z,101773.37
2017-12-04T22:18:45.201Z,101781.70
2017-12-04T22:21:46.783Z,101785.38
2017-12-04T22:24:48.224Z,101770.02
2017-12-04T22:27:49.586Z,101771.38
2017-12-04T22:30:50.961Z,101782.47
2017-12-04T22:33:53.073Z,101775.11
2017-12-04T22:36:54.429Z,101770.64
2017-12-04T22:39:55.835Z,101770.25
2017-12-04T22:42:57.956Z,101778.58
2017-12-04T22:45:59.347Z,101785.20
2017-12-04T22:49:01.438Z,101778.22
2017-12-04T22:52:02.837Z,101786.11
2017-12-04T22:55:04.209Z,101793.23
2017-12-04T22:58:05.573Z,101795.13
2017-12-04T23:01:07.684Z,101799.42
2017-12-04T23:04:09.045Z,101806.77
2017-12-04T23:07:10.426Z,101806.02
2017-12-04T23:10:11.802Z,101805.97
2017-12-04T23:13:13.921Z,101811.88
2017-12-04T23:16:15.348Z,101815.05
2017-12-04T23:19:16.710Z,101809.82
2017-12-04T23:22:18.127Z,101816.23
2017-12-04T23:25:20.257Z,101820.15
2017-12-04T23:28:21.640Z,101810.13
2017-12-04T23:31:23.778Z,101822.88
2017-12-04T23:34:25.165Z,101818.30
2017-12-04T23:37:27.279Z,101821.09
2017-12-04T23:40:28.624Z,101819.25
2017-12-04T23:43:29.964Z,101824.70
2017-12-04T23:46:31.318Z,101811.02
2017-12-04T23:49:32.676Z,101817.66
2017-12-04T23:52:34.045Z,101817.72
2017-12-04T23:55:35.392Z,101823.02
2017-12-04T23:58:36.996Z,101829.91
